Time;durP1;ratioP1;P1;durP2;ratioP2;P2;SDS_P1;SDS_P2;PMS_P1;PMS_P2;Temp;Humidity;BMP_temperature;BMP_pressure;BME280_temperature;BME280_humidity;BME280_pressure;Samples;Min_cycle;Max_cycle;Signal;HPM_P1;HPM_P2
2022/01/19 00:01:13;;;;;;;2.40;1.50;;;;;;;;;;4995225;28;20132;-69
2022/01/19 00:03:39;;;;;;;3.08;1.40;;;;;;;;;;4999435;28;20120;-71
2022/01/19 00:06:06;;;;;;;1.50;1.30;;;;;;;;;;4998994;28;20090;-71
2022/01/19 00:08:32;;;;;;;7.40;1.50;;;;;;;;;;4999200;28;20533;-71
2022/01/19 00:10:58;;;;;;;2.85;1.48;;;;;;;;;;4981813;28;20369;-65
2022/01/19 00:13:24;;;;;;;2.95;1.48;;;;;;;;;;4999484;28;20621;-66
2022/01/19 00:15:50;;;;;;;2.58;1.48;;;;;;;;;;4999390;28;20053;-67
2022/01/19 00:18:19;;;;;;;4.13;1.40;;;;;;;;;;4981904;28;20026;-67
2022/01/19 00:20:45;;;;;;;1.40;1.30;;;;;;;;;;4999329;28;20029;-67
2022/01/19 00:23:12;;;;;;;1.52;1.20;;;;;;;;;;4999210;28;20795;-70
2022/01/19 00:25:39;;;;;;;1.30;1.20;;;;;;;;;;4999245;28;20018;-67
2022/01/19 00:28:05;;;;;;;1.63;1.30;;;;;;;;;;4999099;28;20030;-70
2022/01/19 00:30:31;;;;;;;2.33;1.20;;;;;;;;;;4999133;28;20045;-65
2022/01/19 00:32:57;;;;;;;1.27;1.17;;;;;;;;;;4999053;28;20038;-68
2022/01/19 00:35:23;;;;;;;2.08;1.20;;;;;;;;;;4999178;28;20030;-70
2022/01/19 00:37:49;;;;;;;1.75;1.27;;;;;;;;;;4999121;28;20182;-70
2022/01/19 00:40:16;;;;;;;1.70;1.10;;;;;;;;;;4999171;28;20109;-66
2022/01/19 00:42:43;;;;;;;1.27;1.17;;;;;;;;;;4999107;28;20085;-65
2022/01/19 00:45:09;;;;;;;1.25;1.15;;;;;;;;;;4999328;28;20073;-70
2022/01/19 00:47:35;;;;;;;1.20;1.10;;;;;;;;;;4999078;28;20694;-71
2022/01/19 00:50:01;;;;;;;1.20;1.10;;;;;;;;;;4999272;28;20042;-68
2022/01/19 00:52:27;;;;;;;1.30;1.20;;;;;;;;;;4999179;28;20022;-69
2022/01/19 00:54:53;;;;;;;1.90;1.30;;;;;;;;;;4998932;28;20084;-65
2022/01/19 00:57:19;;;;;;;1.98;0.95;;;;;;;;;;4999138;28;20077;-68
2022/01/19 00:59:45;;;;;;;1.30;1.20;;;;;;;;;;4998989;28;20041;-66
2022/01/19 01:02:11;;;;;;;1.10;1.02;;;;;;;;;;4998499;28;20125;-70
2022/01/19 01:04:37;;;;;;;2.15;0.93;;;;;;;;;;4998941;28;20572;-66
2022/01/19 01:07:03;;;;;;;2.25;1.00;;;;;;;;;;4998395;28;20039;-69
2022/01/19 01:09:29;;;;;;;1.00;0.80;;;;;;;;;;4998745;28;20401;-69
2022/01/19 01:12:01;;;;;;;0.95;0.82;;;;;;;;;;4998113;28;20022;-69
2022/01/19 01:18:18;;;;;;;1.17;0.80;;;;;;;;;;4995922;28;20033;-64
2022/01/19 01:19:59;;;;;;;5.35;0.98;;;;;;;;;;4995743;28;20038;-64
2022/01/19 01:22:25;;;;;;;1.88;1.08;;;;;;;;;;4995593;28;20057;-65
2022/01/19 01:24:51;;;;;;;1.13;0.70;;;;;;;;;;4995836;28;20022;-66
2022/01/19 01:27:18;;;;;;;0.98;0.90;;;;;;;;;;4995702;28;20030;-68
2022/01/19 01:29:44;;;;;;;1.30;0.63;;;;;;;;;;4977969;28;20045;-68
2022/01/19 01:32:10;;;;;;;0.80;0.80;;;;;;;;;;4995554;28;20033;-65
2022/01/19 01:34:36;;;;;;;0.80;0.80;;;;;;;;;;4995534;28;20547;-70
2022/01/19 01:37:03;;;;;;;0.80;0.80;;;;;;;;;;4995326;28;20106;-67
2022/01/19 01:39:29;;;;;;;1.38;0.90;;;;;;;;;;4995395;28;20032;-65
2022/01/19 01:41:55;;;;;;;0.85;0.80;;;;;;;;;;4994993;28;20058;-67
2022/01/19 01:44:21;;;;;;;0.80;0.80;;;;;;;;;;4995606;28;20033;-69
2022/01/19 01:46:52;;;;;;;1.00;0.88;;;;;;;;;;4995293;28;20023;-66
2022/01/19 01:49:42;;;;;;;0.85;0.75;;;;;;;;;;4995223;28;20038;-69
2022/01/19 01:54:52;;;;;;;1.80;0.80;;;;;;;;;;4995464;28;20049;-69
2022/01/19 01:57:19;;;;;;;6.93;0.70;;;;;;;;;;4977517;28;20382;-65
2022/01/19 01:59:44;;;;;;;0.77;0.70;;;;;;;;;;4994947;28;20033;-70
2022/01/19 02:02:10;;;;;;;4.40;0.73;;;;;;;;;;4994787;28;20046;-68
2022/01/19 02:04:40;;;;;;;7.88;0.68;;;;;;;;;;4994745;28;20030;-67
2022/01/19 02:09:55;;;;;;;1.13;0.70;;;;;;;;;;4994665;28;20041;-64
2022/01/19 02:23:48;;;;;;;0.50;0.50;;;;;;;;;;4994097;28;20037;-68
2022/01/19 02:26:22;;;;;;;0.55;0.50;;;;;;;;;;4993257;28;20034;-68
2022/01/19 02:29:25;;;;;;;2.15;0.57;;;;;;;;;;4976316;28;20413;-67
2022/01/19 02:42:33;;;;;;;2.83;0.63;;;;;;;;;;4993795;28;20089;-64
2022/01/19 02:49:52;;;;;;;0.52;0.47;;;;;;;;;;4994266;28;20065;-71
2022/01/19 02:52:19;;;;;;;2.17;0.60;;;;;;;;;;4993900;28;20057;-68
2022/01/19 02:54:46;;;;;;;0.77;0.52;;;;;;;;;;4993970;28;20137;-69
2022/01/19 02:57:13;;;;;;;1.90;0.57;;;;;;;;;;4993990;28;20033;-71
2022/01/19 03:10:25;;;;;;;0.40;0.40;;;;;;;;;;5000943;28;20496;-70
2022/01/19 03:12:51;;;;;;;0.52;0.52;;;;;;;;;;5013103;28;20058;-70
2022/01/19 03:15:18;;;;;;;0.85;0.60;;;;;;;;;;5013290;28;20432;-70
2022/01/19 03:17:44;;;;;;;1.75;0.47;;;;;;;;;;5013098;28;20030;-71
2022/01/19 03:20:10;;;;;;;0.50;0.50;;;;;;;;;;5013260;28;20100;-68
2022/01/19 03:22:47;;;;;;;3.58;0.50;;;;;;;;;;5013122;28;20021;-68
2022/01/19 03:25:13;;;;;;;0.57;0.50;;;;;;;;;;5013139;28;20445;-69
2022/01/19 03:27:40;;;;;;;0.68;0.50;;;;;;;;;;5012818;28;20032;-67
2022/01/19 03:30:07;;;;;;;2.45;0.60;;;;;;;;;;5013133;28;20045;-70
2022/01/19 03:32:33;;;;;;;0.43;0.43;;;;;;;;;;5012747;28;20072;-69
2022/01/19 03:34:59;;;;;;;0.50;0.50;;;;;;;;;;5013056;28;20025;-68
2022/01/19 03:37:25;;;;;;;0.40;0.40;;;;;;;;;;5012867;28;20022;-69
2022/01/19 03:39:51;;;;;;;0.47;0.43;;;;;;;;;;5013105;28;20026;-70
2022/01/19 03:42:17;;;;;;;0.50;0.50;;;;;;;;;;5013054;28;20416;-69
2022/01/19 03:44:44;;;;;;;0.52;0.50;;;;;;;;;;5013003;28;20037;-68
2022/01/19 03:47:10;;;;;;;0.47;0.47;;;;;;;;;;5013011;28;20129;-70
2022/01/19 03:49:36;;;;;;;0.40;0.40;;;;;;;;;;5012880;28;20124;-70
2022/01/19 03:52:04;;;;;;;1.58;0.40;;;;;;;;;;5012581;28;20026;-70
2022/01/19 03:54:31;;;;;;;0.45;0.45;;;;;;;;;;5013137;28;20036;-70
2022/01/19 03:56:57;;;;;;;0.45;0.45;;;;;;;;;;4995180;28;20060;-67
2022/01/19 03:59:23;;;;;;;1.02;0.40;;;;;;;;;;5012812;28;20050;-68
2022/01/19 04:01:53;;;;;;;1.15;0.50;;;;;;;;;;5012328;28;20053;-70
2022/01/19 04:04:40;;;;;;;0.75;0.40;;;;;;;;;;5012742;28;20026;-70
2022/01/19 04:09:33;;;;;;;0.50;0.50;;;;;;;;;;5002577;28;20035;-69
2022/01/19 04:11:59;;;;;;;0.50;0.40;;;;;;;;;;4992667;28;20089;-70
2022/01/19 04:14:25;;;;;;;0.82;0.50;;;;;;;;;;4992914;28;20027;-70
2022/01/19 04:16:53;;;;;;;0.40;0.40;;;;;;;;;;4992903;28;20023;-71
2022/01/19 04:19:28;;;;;;;0.63;0.50;;;;;;;;;;4975690;28;20023;-70
2022/01/19 04:21:55;;;;;;;0.43;0.40;;;;;;;;;;4992687;28;20026;-66
2022/01/19 04:24:21;;;;;;;0.98;0.60;;;;;;;;;;4992912;28;20624;-70
2022/01/19 04:26:58;;;;;;;0.50;0.50;;;;;;;;;;4992797;28;20105;-67
2022/01/19 04:29:24;;;;;;;0.98;0.60;;;;;;;;;;4992676;28;20382;-70
2022/01/19 04:31:50;;;;;;;0.52;0.50;;;;;;;;;;4992717;28;20031;-70
2022/01/19 04:34:18;;;;;;;0.70;0.60;;;;;;;;;;4992729;28;20034;-70
2022/01/19 04:37:42;;;;;;;0.55;0.55;;;;;;;;;;4992820;28;20065;-69
2022/01/19 04:44:03;;;;;;;0.60;0.57;;;;;;;;;;4978763;28;20552;-69
2022/01/19 05:01:47;;;;;;;1.23;0.52;;;;;;;;;;4916846;29;20099;-71
2022/01/19 05:06:46;;;;;;;0.65;0.60;;;;;;;;;;4996049;28;20366;-68
2022/01/19 05:09:50;;;;;;;0.55;0.50;;;;;;;;;;4995852;28;20109;-69
2022/01/19 05:14:54;;;;;;;0.68;0.63;;;;;;;;;;4976469;28;20034;-69
2022/01/19 05:17:20;;;;;;;1.70;0.60;;;;;;;;;;4959222;28;20031;-69
2022/01/19 05:19:46;;;;;;;1.35;0.60;;;;;;;;;;4959201;28;20150;-68
2022/01/19 05:22:12;;;;;;;3.95;0.70;;;;;;;;;;4976278;28;20031;-70
2022/01/19 05:24:38;;;;;;;1.00;0.63;;;;;;;;;;4976145;28;20036;-68
2022/01/19 05:27:04;;;;;;;1.50;0.80;;;;;;;;;;4976378;28;20110;-69
2022/01/19 05:29:30;;;;;;;0.60;0.60;;;;;;;;;;4976135;28;20027;-67
2022/01/19 05:31:56;;;;;;;0.65;0.60;;;;;;;;;;4976004;28;20034;-69
2022/01/19 05:34:22;;;;;;;1.40;0.70;;;;;;;;;;4976137;28;20033;-69
2022/01/19 05:36:48;;;;;;;0.60;0.60;;;;;;;;;;4976143;28;20488;-70
2022/01/19 05:39:14;;;;;;;0.70;0.70;;;;;;;;;;4976042;28;20030;-68
2022/01/19 05:41:40;;;;;;;2.83;0.70;;;;;;;;;;4975641;28;20027;-69
2022/01/19 05:44:06;;;;;;;1.00;0.70;;;;;;;;;;4975924;28;20058;-70
2022/01/19 05:46:33;;;;;;;1.20;0.80;;;;;;;;;;4975625;28;20391;-68
2022/01/19 05:48:59;;;;;;;1.75;1.10;;;;;;;;;;4975834;28;20035;-69
2022/01/19 05:51:25;;;;;;;1.50;0.80;;;;;;;;;;4958312;28;20030;-69
2022/01/19 05:53:51;;;;;;;2.28;0.80;;;;;;;;;;4975536;28;20035;-71
2022/01/19 05:56:17;;;;;;;2.72;0.73;;;;;;;;;;4975981;28;20129;-68
2022/01/19 05:58:43;;;;;;;2.03;1.00;;;;;;;;;;4975369;28;20390;-70
2022/01/19 06:01:08;;;;;;;1.30;0.70;;;;;;;;;;4975189;28;20050;-69
2022/01/19 06:03:34;;;;;;;1.17;1.08;;;;;;;;;;4975516;28;20042;-70
2022/01/19 06:06:00;;;;;;;0.60;0.60;;;;;;;;;;4975021;28;20030;-68
2022/01/19 06:10:55;;;;;;;1.00;0.80;;;;;;;;;;5005586;28;20048;-68
2022/01/19 06:13:22;;;;;;;1.10;1.00;;;;;;;;;;5014316;28;20045;-70
2022/01/19 06:15:48;;;;;;;1.20;0.93;;;;;;;;;;4996790;28;20033;-68
2022/01/19 06:18:15;;;;;;;3.55;1.00;;;;;;;;;;5014478;28;20030;-70
2022/01/19 06:20:41;;;;;;;2.50;1.10;;;;;;;;;;5014537;28;20022;-68
2022/01/19 06:23:07;;;;;;;1.25;1.00;;;;;;;;;;5014040;28;20032;-68
2022/01/19 06:25:33;;;;;;;1.35;1.15;;;;;;;;;;5014379;28;20026;-69
2022/01/19 06:27:59;;;;;;;1.77;1.10;;;;;;;;;;5014283;28;20059;-68
2022/01/19 06:30:26;;;;;;;1.35;1.00;;;;;;;;;;5014102;28;20046;-68
2022/01/19 06:32:52;;;;;;;2.08;1.20;;;;;;;;;;4996176;28;20555;-68
2022/01/19 06:35:18;;;;;;;1.60;1.10;;;;;;;;;;5014025;28;20049;-68
2022/01/19 06:37:44;;;;;;;3.58;1.65;;;;;;;;;;5014108;28;20026;-67
2022/01/19 06:40:10;;;;;;;4.93;3.28;;;;;;;;;;5014086;28;20091;-67
2022/01/19 06:42:37;;;;;;;5.95;3.72;;;;;;;;;;4996315;28;20120;-68
2022/01/19 06:45:04;;;;;;;6.25;3.63;;;;;;;;;;5013993;28;20033;-67
2022/01/19 06:47:30;;;;;;;4.97;4.05;;;;;;;;;;5013797;28;20030;-68
2022/01/19 06:49:56;;;;;;;5.32;3.40;;;;;;;;;;5013512;28;20038;-68
2022/01/19 06:52:22;;;;;;;5.50;3.95;;;;;;;;;;5013379;28;20076;-68
2022/01/19 06:54:48;;;;;;;4.78;3.60;;;;;;;;;;5013285;28;20033;-68
2022/01/19 06:57:14;;;;;;;6.25;4.15;;;;;;;;;;5013310;28;20064;-67
2022/01/19 06:59:40;;;;;;;5.85;3.90;;;;;;;;;;5013355;28;20026;-67
2022/01/19 07:02:06;;;;;;;5.38;4.00;;;;;;;;;;5012927;28;20046;-68
2022/01/19 07:04:32;;;;;;;5.97;4.05;;;;;;;;;;5013308;28;20030;-67
2022/01/19 07:06:58;;;;;;;7.63;4.47;;;;;;;;;;4995228;28;20021;-67
2022/01/19 07:09:24;;;;;;;4.90;3.88;;;;;;;;;;4986747;28;20185;-66
2022/01/19 07:11:50;;;;;;;5.82;4.22;;;;;;;;;;5011538;28;20026;-68
2022/01/19 07:14:17;;;;;;;8.27;4.18;;;;;;;;;;5013078;28;20048;-67
2022/01/19 07:16:43;;;;;;;7.60;5.05;;;;;;;;;;4995559;28;20065;-67
2022/01/19 07:19:10;;;;;;;6.22;4.30;;;;;;;;;;5012968;28;20381;-68
2022/01/19 07:21:36;;;;;;;8.68;5.10;;;;;;;;;;5013256;28;20084;-67
2022/01/19 07:24:02;;;;;;;8.07;4.95;;;;;;;;;;5012975;28;20026;-68
2022/01/19 07:26:28;;;;;;;7.35;4.78;;;;;;;;;;5013014;28;20037;-68
2022/01/19 07:28:54;;;;;;;8.18;4.85;;;;;;;;;;5012730;28;20037;-67
2022/01/19 07:31:20;;;;;;;8.27;4.60;;;;;;;;;;5012905;28;20034;-67
2022/01/19 07:33:46;;;;;;;6.47;4.70;;;;;;;;;;5012928;28;20108;-68
2022/01/19 07:36:12;;;;;;;6.95;5.25;;;;;;;;;;5012741;28;20053;-67
2022/01/19 07:38:38;;;;;;;8.52;5.05;;;;;;;;;;4995168;28;20037;-67
2022/01/19 07:41:04;;;;;;;7.25;4.93;;;;;;;;;;5012825;28;20022;-67
2022/01/19 07:43:30;;;;;;;6.85;4.88;;;;;;;;;;5012844;28;20409;-68
2022/01/19 07:45:56;;;;;;;17.85;5.63;;;;;;;;;;5002482;28;20047;-70
2022/01/19 07:48:22;;;;;;;59.75;6.55;;;;;;;;;;5004612;28;20026;-68
2022/01/19 07:50:48;;;;;;;18.45;6.68;;;;;;;;;;5013227;28;20061;-70
2022/01/19 07:53:14;;;;;;;24.33;7.68;;;;;;;;;;5013709;28;20029;-74
2022/01/19 07:55:40;;;;;;;14.45;7.22;;;;;;;;;;5013227;28;20026;-70
2022/01/19 07:58:06;;;;;;;19.83;7.18;;;;;;;;;;5013648;28;20405;-71
2022/01/19 08:00:34;;;;;;;22.73;7.75;;;;;;;;;;5013261;28;20033;-73
2022/01/19 08:03:00;;;;;;;37.40;8.50;;;;;;;;;;5012959;28;20053;-73
2022/01/19 08:05:26;;;;;;;37.85;8.68;;;;;;;;;;5002566;28;20385;-68
2022/01/19 08:07:52;;;;;;;33.58;8.88;;;;;;;;;;4993012;28;20456;-67
2022/01/19 08:10:18;;;;;;;31.75;7.78;;;;;;;;;;4998825;28;20052;-67
2022/01/19 08:12:44;;;;;;;38.63;9.07;;;;;;;;;;5012367;28;20048;-71
2022/01/19 08:15:10;;;;;;;17.23;8.48;;;;;;;;;;4995503;28;20030;-78
2022/01/19 08:17:36;;;;;;;23.77;9.30;;;;;;;;;;4995384;28;20022;-71
2022/01/19 08:20:03;;;;;;;30.42;8.65;;;;;;;;;;5012830;28;20422;-71
2022/01/19 08:22:28;;;;;;;26.55;9.30;;;;;;;;;;5014979;28;20033;-72
2022/01/19 08:24:54;;;;;;;22.45;9.80;;;;;;;;;;4999185;28;20396;-71
2022/01/19 08:27:20;;;;;;;26.45;9.80;;;;;;;;;;5014596;28;20032;-72
2022/01/19 08:29:49;;;;;;;30.42;10.38;;;;;;;;;;4997381;28;20173;-73
2022/01/19 08:32:15;;;;;;;24.10;10.30;;;;;;;;;;4997422;28;20034;-70
2022/01/19 08:34:41;;;;;;;26.65;10.70;;;;;;;;;;4997320;28;20025;-74
2022/01/19 08:37:10;;;;;;;16.88;10.18;;;;;;;;;;4997562;28;20030;-73
2022/01/19 08:39:39;;;;;;;27.73;11.75;;;;;;;;;;4996608;28;20072;-63
2022/01/19 08:42:05;;;;;;;29.38;11.23;;;;;;;;;;4996065;28;20093;-62
2022/01/19 08:44:31;;;;;;;21.25;11.43;;;;;;;;;;4990445;28;20098;-71
2022/01/19 08:46:57;;;;;;;21.80;11.60;;;;;;;;;;4995522;28;20030;-67
2022/01/19 08:49:22;;;;;;;31.88;12.40;;;;;;;;;;4988157;28;20030;-67
2022/01/19 08:51:48;;;;;;;26.50;14.15;;;;;;;;;;4991269;28;20053;-68
2022/01/19 08:54:14;;;;;;;28.23;14.00;;;;;;;;;;4994261;28;20045;-75
2022/01/19 08:56:40;;;;;;;29.65;14.07;;;;;;;;;;4978460;28;20018;-68
2022/01/19 08:59:07;;;;;;;33.58;17.02;;;;;;;;;;4978883;28;20077;-71
2022/01/19 09:01:33;;;;;;;26.02;16.67;;;;;;;;;;4996026;28;20474;-67
2022/01/19 09:03:58;;;;;;;33.80;18.63;;;;;;;;;;4996053;28;20477;-68
2022/01/19 09:06:25;;;;;;;32.85;19.27;;;;;;;;;;4994105;28;20034;-72
2022/01/19 09:08:51;;;;;;;31.60;20.58;;;;;;;;;;4980163;28;20470;-70
2022/01/19 09:11:17;;;;;;;37.65;20.50;;;;;;;;;;5009612;28;20048;-68
2022/01/19 09:13:44;;;;;;;44.65;21.48;;;;;;;;;;5015433;28;20049;-70
2022/01/19 09:16:10;;;;;;;36.92;22.38;;;;;;;;;;5015640;28;20042;-73
2022/01/19 09:18:36;;;;;;;44.53;22.45;;;;;;;;;;5015725;28;20026;-61
2022/01/19 09:21:02;;;;;;;41.92;22.80;;;;;;;;;;5005673;28;20042;-68
2022/01/19 09:23:29;;;;;;;41.53;22.10;;;;;;;;;;4998237;28;20027;-68
2022/01/19 09:25:55;;;;;;;34.83;21.10;;;;;;;;;;4995234;28;20433;-70
2022/01/19 09:28:21;;;;;;;33.95;20.20;;;;;;;;;;4995188;28;20490;-66
2022/01/19 09:30:48;;;;;;;44.72;20.65;;;;;;;;;;4994992;28;20038;-69
2022/01/19 09:33:20;;;;;;;40.25;21.63;;;;;;;;;;4997189;28;20042;-67
2022/01/19 09:36:05;;;;;;;41.88;24.23;;;;;;;;;;4994989;28;20026;-68
2022/01/19 09:38:33;;;;;;;39.40;23.25;;;;;;;;;;4977701;28;20121;-67
2022/01/19 09:41:00;;;;;;;44.15;25.35;;;;;;;;;;4994801;28;20030;-67
2022/01/19 09:43:26;;;;;;;45.70;25.40;;;;;;;;;;4988994;28;20019;-67
2022/01/19 09:45:54;;;;;;;49.38;25.13;;;;;;;;;;4979248;28;20397;-70
2022/01/19 09:48:20;;;;;;;50.20;26.02;;;;;;;;;;4993351;28;20103;-68
2022/01/19 09:50:46;;;;;;;58.80;26.88;;;;;;;;;;4975756;28;20096;-69
2022/01/19 09:53:13;;;;;;;40.72;25.52;;;;;;;;;;4983874;28;20022;-67
2022/01/19 09:55:39;;;;;;;48.42;27.45;;;;;;;;;;4994691;28;20034;-68
2022/01/19 09:58:06;;;;;;;45.90;27.15;;;;;;;;;;4993748;28;20041;-71
2022/01/19 10:00:32;;;;;;;48.45;28.63;;;;;;;;;;4993853;28;20049;-69
2022/01/19 10:03:11;;;;;;;55.00;29.52;;;;;;;;;;4993999;28;20042;-70
2022/01/19 10:05:42;;;;;;;59.97;30.38;;;;;;;;;;4994371;28;20033;-70
2022/01/19 10:08:08;;;;;;;48.88;30.60;;;;;;;;;;4994165;28;20037;-71
2022/01/19 10:10:34;;;;;;;50.42;30.23;;;;;;;;;;4961691;28;20125;-69
2022/01/19 10:23:49;;;;;;;49.80;28.02;;;;;;;;;;5109148;27;20393;-68
2022/01/19 10:26:16;;;;;;;51.72;27.70;;;;;;;;;;5104611;28;20034;-69
2022/01/19 10:28:57;;;;;;;49.83;27.92;;;;;;;;;;5116294;28;20024;-68
2022/01/19 10:31:23;;;;;;;59.03;27.95;;;;;;;;;;5129167;28;20027;-69
2022/01/19 10:34:08;;;;;;;41.63;27.08;;;;;;;;;;5130282;28;20038;-69
2022/01/19 10:36:48;;;;;;;44.30;26.92;;;;;;;;;;5131743;28;20096;-69
2022/01/19 10:39:15;;;;;;;57.45;29.02;;;;;;;;;;5130180;28;20051;-71
2022/01/19 10:42:00;;;;;;;48.17;28.15;;;;;;;;;;5111871;28;20023;-70
2022/01/19 10:44:35;;;;;;;48.67;28.58;;;;;;;;;;5126705;28;20027;-70
2022/01/19 10:47:01;;;;;;;44.10;27.80;;;;;;;;;;5118597;28;20026;-70
2022/01/19 10:49:27;;;;;;;45.90;26.55;;;;;;;;;;5117426;28;20202;-68
2022/01/19 10:51:58;;;;;;;46.65;28.85;;;;;;;;;;5108888;28;20057;-69
2022/01/19 10:54:26;;;;;;;40.17;27.15;;;;;;;;;;5109803;28;20031;-70
2022/01/19 10:56:57;;;;;;;45.20;28.10;;;;;;;;;;5116683;28;20026;-72
2022/01/19 10:59:27;;;;;;;45.22;27.92;;;;;;;;;;5120915;27;20023;-72
2022/01/19 11:01:55;;;;;;;44.65;27.45;;;;;;;;;;5112045;28;20027;-69
2022/01/19 11:04:33;;;;;;;44.20;26.23;;;;;;;;;;5093310;28;20034;-72
2022/01/19 11:07:01;;;;;;;47.67;27.80;;;;;;;;;;5109170;28;20055;-72
2022/01/19 11:09:29;;;;;;;41.38;25.52;;;;;;;;;;5106375;28;20108;-72
2022/01/19 11:11:56;;;;;;;45.30;25.40;;;;;;;;;;5118659;23;20068;-62
2022/01/19 11:14:24;;;;;;;49.10;25.52;;;;;;;;;;5030355;28;20371;-62
2022/01/19 11:16:51;;;;;;;40.97;27.02;;;;;;;;;;5047412;28;20020;-61
2022/01/19 11:19:18;;;;;;;38.47;24.15;;;;;;;;;;5048705;28;20140;-62
2022/01/19 11:21:59;;;;;;;40.80;25.27;;;;;;;;;;5048146;28;20037;-61
2022/01/19 11:24:29;;;;;;;45.83;24.77;;;;;;;;;;5048454;28;20040;-61
2022/01/19 11:26:56;;;;;;;44.15;26.23;;;;;;;;;;5048082;28;20018;-61
2022/01/19 11:29:23;;;;;;;76.57;25.02;;;;;;;;;;5047261;28;20021;-63
2022/01/19 11:31:50;;;;;;;52.13;24.75;;;;;;;;;;5047703;28;20037;-62
2022/01/19 11:34:35;;;;;;;46.15;24.42;;;;;;;;;;5037906;28;20480;-63
2022/01/19 11:37:02;;;;;;;44.10;23.75;;;;;;;;;;5031346;28;20091;-63
2022/01/19 11:39:30;;;;;;;42.20;24.23;;;;;;;;;;5034262;28;20415;-63
2022/01/19 11:41:57;;;;;;;47.63;23.13;;;;;;;;;;5019231;28;20029;-63
2022/01/19 11:44:32;;;;;;;37.53;21.85;;;;;;;;;;5002376;28;20030;-63
2022/01/19 11:46:59;;;;;;;32.45;20.20;;;;;;;;;;5005213;28;20022;-64
2022/01/19 11:49:46;;;;;;;36.15;21.80;;;;;;;;;;5010599;28;20045;-63
2022/01/19 11:52:15;;;;;;;36.92;19.70;;;;;;;;;;5009906;28;20038;-63
2022/01/19 11:54:41;;;;;;;26.63;18.65;;;;;;;;;;5013613;28;20033;-62
2022/01/19 11:57:12;;;;;;;34.08;18.05;;;;;;;;;;5014672;28;20113;-63
2022/01/19 11:59:47;;;;;;;39.58;17.65;;;;;;;;;;5015037;28;20493;-63
2022/01/19 12:02:26;;;;;;;29.10;16.00;;;;;;;;;;5014339;28;20026;-63
2022/01/19 12:05:13;;;;;;;26.63;14.88;;;;;;;;;;5014610;28;20076;-63
2022/01/19 12:07:39;;;;;;;22.63;14.55;;;;;;;;;;5012933;28;20126;-63
2022/01/19 12:10:08;;;;;;;22.05;13.60;;;;;;;;;;5013696;28;20053;-63
2022/01/19 12:12:40;;;;;;;22.95;12.90;;;;;;;;;;5014058;28;20400;-63
2022/01/19 12:15:09;;;;;;;18.90;12.10;;;;;;;;;;4996656;28;20405;-63
2022/01/19 12:17:56;;;;;;;29.13;12.30;;;;;;;;;;5014444;28;20022;-63
2022/01/19 12:20:45;;;;;;;18.75;9.88;;;;;;;;;;4997575;28;20417;-63
2022/01/19 12:23:31;;;;;;;16.92;10.15;;;;;;;;;;5012209;28;20049;-63
2022/01/19 12:25:57;;;;;;;17.35;9.98;;;;;;;;;;5013888;28;20018;-63
2022/01/19 12:28:37;;;;;;;20.58;9.90;;;;;;;;;;4997295;28;20129;-62
2022/01/19 12:31:22;;;;;;;16.23;8.25;;;;;;;;;;4994765;28;20027;-66
2022/01/19 12:34:09;;;;;;;17.33;8.52;;;;;;;;;;5012001;28;20105;-60
2022/01/19 12:36:48;;;;;;;13.20;7.63;;;;;;;;;;5013718;28;20022;-64
2022/01/19 12:39:27;;;;;;;11.95;7.38;;;;;;;;;;5013555;28;20049;-63
2022/01/19 12:41:58;;;;;;;11.38;6.30;;;;;;;;;;5013857;28;20108;-62
2022/01/19 12:44:39;;;;;;;12.93;7.10;;;;;;;;;;5014289;28;20029;-62
2022/01/19 12:47:05;;;;;;;13.88;6.50;;;;;;;;;;5012626;28;20068;-63
2022/01/19 12:49:32;;;;;;;9.13;5.78;;;;;;;;;;5013409;28;20039;-62
2022/01/19 12:51:59;;;;;;;14.70;6.07;;;;;;;;;;4996170;28;20036;-63
2022/01/19 12:54:27;;;;;;;11.65;5.38;;;;;;;;;;5014068;28;20048;-62
2022/01/19 12:56:54;;;;;;;13.10;5.25;;;;;;;;;;5013791;28;20449;-62
2022/01/19 12:59:20;;;;;;;9.82;5.15;;;;;;;;;;5013901;28;20030;-63
2022/01/19 13:01:46;;;;;;;11.73;5.25;;;;;;;;;;5013560;28;20026;-63
2022/01/19 13:04:22;;;;;;;11.07;4.80;;;;;;;;;;5013647;28;20026;-63
2022/01/19 13:06:48;;;;;;;15.15;5.03;;;;;;;;;;5013643;28;20104;-63
2022/01/19 13:09:25;;;;;;;8.85;4.28;;;;;;;;;;5013466;28;20097;-62
2022/01/19 13:11:54;;;;;;;11.90;4.22;;;;;;;;;;5031878;28;20028;-62
2022/01/19 13:14:22;;;;;;;11.60;4.13;;;;;;;;;;5033435;28;20030;-63
2022/01/19 13:16:52;;;;;;;7.15;3.75;;;;;;;;;;5033045;28;20017;-63
2022/01/19 13:19:19;;;;;;;7.93;3.75;;;;;;;;;;5033107;28;20107;-63
2022/01/19 13:21:47;;;;;;;8.57;3.60;;;;;;;;;;5033255;28;20029;-63
2022/01/19 13:24:19;;;;;;;8.98;3.50;;;;;;;;;;5032962;28;20025;-63
2022/01/19 13:27:01;;;;;;;8.65;3.97;;;;;;;;;;5032708;28;20032;-63
2022/01/19 13:29:36;;;;;;;11.60;3.35;;;;;;;;;;5016715;28;20029;-62
2022/01/19 13:32:13;;;;;;;8.57;3.50;;;;;;;;;;4993306;28;20061;-62
2022/01/19 13:34:58;;;;;;;9.48;3.75;;;;;;;;;;4993529;28;20033;-63
2022/01/19 13:37:25;;;;;;;9.93;3.70;;;;;;;;;;4993415;28;20081;-63
2022/01/19 13:40:08;;;;;;;10.15;3.65;;;;;;;;;;4993465;28;20125;-62
2022/01/19 13:42:40;;;;;;;5.35;3.20;;;;;;;;;;4993271;28;20026;-63
2022/01/19 13:45:10;;;;;;;8.77;3.67;;;;;;;;;;5015246;28;20105;-63
2022/01/19 13:50:31;;;;;;;11.43;3.28;;;;;;;;;;5029586;28;20026;-62
2022/01/19 13:52:58;;;;;;;13.50;3.58;;;;;;;;;;5032502;28;20134;-63
2022/01/19 13:55:24;;;;;;;11.40;3.67;;;;;;;;;;5032729;28;20044;-63
2022/01/19 13:57:50;;;;;;;10.15;3.00;;;;;;;;;;5032482;28;20029;-63
2022/01/19 14:00:20;;;;;;;7.88;3.17;;;;;;;;;;5032462;28;20029;-62
2022/01/19 14:02:56;;;;;;;9.57;3.60;;;;;;;;;;5014529;28;20025;-63
2022/01/19 14:05:34;;;;;;;9.20;3.05;;;;;;;;;;5032058;28;20027;-63
2022/01/19 14:08:00;;;;;;;8.90;3.50;;;;;;;;;;5032251;28;20040;-63
2022/01/19 14:10:26;;;;;;;8.90;3.63;;;;;;;;;;5022087;28;20407;-63
2022/01/19 14:12:52;;;;;;;12.05;3.70;;;;;;;;;;5031721;28;20053;-62
2022/01/19 14:15:26;;;;;;;8.98;3.30;;;;;;;;;;5026368;28;20032;-62
2022/01/19 14:17:52;;;;;;;7.00;3.22;;;;;;;;;;5025682;28;20088;-62
2022/01/19 14:20:21;;;;;;;6.18;2.88;;;;;;;;;;5017751;28;20022;-63
2022/01/19 14:22:47;;;;;;;10.15;3.35;;;;;;;;;;5018966;28;20038;-62
2022/01/19 14:25:16;;;;;;;10.00;3.58;;;;;;;;;;5022626;28;20021;-62
2022/01/19 14:27:52;;;;;;;14.27;3.33;;;;;;;;;;5023603;28;20046;-63
2022/01/19 14:30:28;;;;;;;7.00;3.28;;;;;;;;;;5017527;28;20030;-62
2022/01/19 14:32:56;;;;;;;7.78;3.00;;;;;;;;;;5000489;28;20030;-61
2022/01/19 14:35:24;;;;;;;11.63;3.50;;;;;;;;;;5018963;28;20033;-62
2022/01/19 14:37:56;;;;;;;7.90;2.92;;;;;;;;;;5013246;28;20093;-62
2022/01/19 14:40:22;;;;;;;9.50;3.25;;;;;;;;;;5022451;28;20025;-63
2022/01/19 14:42:51;;;;;;;7.30;3.22;;;;;;;;;;5019037;28;20370;-62
2022/01/19 14:45:22;;;;;;;10.25;3.22;;;;;;;;;;5023882;28;20543;-61
2022/01/19 14:47:48;;;;;;;9.95;3.35;;;;;;;;;;5032067;28;20552;-62
2022/01/19 14:50:19;;;;;;;9.98;3.30;;;;;;;;;;5009080;28;20112;-62
2022/01/19 14:52:49;;;;;;;13.52;3.13;;;;;;;;;;5012068;28;20034;-62
2022/01/19 14:55:15;;;;;;;9.20;3.45;;;;;;;;;;5015112;28;20037;-62
2022/01/19 14:57:41;;;;;;;6.13;2.80;;;;;;;;;;5012148;28;20030;-62
2022/01/19 15:00:07;;;;;;;7.18;2.70;;;;;;;;;;5012228;28;20026;-62
2022/01/19 15:02:33;;;;;;;7.53;3.30;;;;;;;;;;5011894;28;20026;-62
2022/01/19 15:04:59;;;;;;;8.57;3.00;;;;;;;;;;5012311;28;20032;-62
2022/01/19 15:07:25;;;;;;;11.90;3.10;;;;;;;;;;5012204;28;20105;-62
2022/01/19 15:09:51;;;;;;;5.93;2.75;;;;;;;;;;5015098;28;20038;-62
2022/01/19 15:12:17;;;;;;;8.27;2.65;;;;;;;;;;5007516;28;20065;-63
2022/01/19 15:14:45;;;;;;;6.65;2.78;;;;;;;;;;4994434;28;20026;-63
2022/01/19 15:17:11;;;;;;;7.68;3.00;;;;;;;;;;5010155;28;20022;-63
2022/01/19 15:19:37;;;;;;;9.43;3.05;;;;;;;;;;5011287;28;20018;-63
2022/01/19 15:22:03;;;;;;;8.90;2.70;;;;;;;;;;5014725;28;20030;-63
2022/01/19 15:24:29;;;;;;;8.85;3.25;;;;;;;;;;5014642;28;20026;-63
2022/01/19 15:26:55;;;;;;;8.07;3.00;;;;;;;;;;5015345;28;20029;-64
2022/01/19 15:29:21;;;;;;;11.90;3.30;;;;;;;;;;5015333;28;20033;-63
2022/01/19 15:31:50;;;;;;;7.38;2.90;;;;;;;;;;5015134;28;20029;-64
2022/01/19 15:34:17;;;;;;;7.45;2.83;;;;;;;;;;5016091;28;20037;-63
2022/01/19 15:36:43;;;;;;;9.27;2.88;;;;;;;;;;5014533;28;20465;-63
2022/01/19 15:39:09;;;;;;;6.63;2.70;;;;;;;;;;5015273;28;20160;-63
2022/01/19 15:41:38;;;;;;;7.40;2.97;;;;;;;;;;5014872;28;20021;-63
2022/01/19 15:44:04;;;;;;;9.77;3.03;;;;;;;;;;5014782;28;20068;-63
2022/01/19 15:46:30;;;;;;;8.20;3.00;;;;;;;;;;4999037;28;20033;-63
2022/01/19 15:48:57;;;;;;;8.57;3.20;;;;;;;;;;5015156;28;20396;-64
2022/01/19 15:51:23;;;;;;;6.70;3.10;;;;;;;;;;5014985;28;20034;-63
2022/01/19 15:53:50;;;;;;;5.78;2.97;;;;;;;;;;5014807;28;20045;-63
2022/01/19 15:56:18;;;;;;;6.80;2.83;;;;;;;;;;5019174;28;20112;-64
2022/01/19 15:58:44;;;;;;;9.65;3.33;;;;;;;;;;5034722;28;20026;-63
2022/01/19 16:01:10;;;;;;;8.52;2.75;;;;;;;;;;5034264;28;20059;-63
2022/01/19 16:03:36;;;;;;;7.70;3.38;;;;;;;;;;5034538;28;20385;-63
2022/01/19 16:06:04;;;;;;;9.63;3.08;;;;;;;;;;5015741;28;20080;-63
2022/01/19 16:08:30;;;;;;;4.93;2.60;;;;;;;;;;5019975;28;20409;-63
2022/01/19 16:10:56;;;;;;;6.68;3.00;;;;;;;;;;5014316;28;20049;-63